sensor_id;sensor_type;location;lat;lon;timestamp;pressure;altitude;pressure_sealevel;temperature;humidity
6974;BME280;3527;52.376;8.990;2022-09-09T00:00:16;100662.97;;;13.67;100.00
6974;BME280;3527;52.376;8.990;2022-09-09T00:03:12;100655.38;;;13.71;100.00
6974;BME280;3527;52.376;8.990;2022-09-09T00:06:18;100662.56;;;13.65;100.00
6974;BME280;3527;52.376;8.990;2022-09-09T00:09:19;100659.34;;;13.63;100.00
6974;BME280;3527;52.376;8.990;2022-09-09T00:15:02;100668.94;;;13.58;100.00
6974;BME280;3527;52.376;8.990;2022-09-09T00:17:56;100665.75;;;13.60;100.00
6974;BME280;3527;52.376;8.990;2022-09-09T00:23:48;100670.97;;;13.65;100.00
6974;BME280;3527;52.376;8.990;2022-09-09T00:26:45;100666.53;;;13.57;100.00
6974;BME280;3527;52.376;8.990;2022-09-09T00:29:44;100676.16;;;13.56;100.00
6974;BME280;3527;52.376;8.990;2022-09-09T00:32:33;100662.50;;;13.51;100.00
6974;BME280;3527;52.376;8.990;2022-09-09T00:35:29;100667.72;;;13.52;100.00
6974;BME280;3527;52.376;8.990;2022-09-09T00:38:21;100668.94;;;13.58;100.00
6974;BME280;3527;52.376;8.990;2022-09-09T00:41:22;100660.13;;;13.60;100.00
6974;BME280;3527;52.376;8.990;2022-09-09T00:44:33;100665.34;;;13.65;100.00
6974;BME280;3527;52.376;8.990;2022-09-09T00:47:44;100669.41;;;13.71;100.00
6974;BME280;3527;52.376;8.990;2022-09-09T00:50:53;100662.59;;;13.72;100.00
6974;BME280;3527;52.376;8.990;2022-09-09T01:06:15;100661.34;;;13.59;100.00
6974;BME280;3527;52.376;8.990;2022-09-09T01:09:27;100660.13;;;13.60;100.00
6974;BME280;3527;52.376;8.990;2022-09-09T01:15:27;100658.53;;;13.59;100.00
6974;BME280;3527;52.376;8.990;2022-09-09T01:18:17;100648.13;;;13.63;100.00
6974;BME280;3527;52.376;8.990;2022-09-09T01:21:13;100654.53;;;13.60;100.00
6974;BME280;3527;52.376;8.990;2022-09-09T01:24:29;100646.91;;;13.57;100.00
6974;BME280;3527;52.376;8.990;2022-09-09T01:27:19;100653.31;;;13.54;100.00
6974;BME280;3527;52.376;8.990;2022-09-09T01:30:10;100653.72;;;13.56;100.00
6974;BME280;3527;52.376;8.990;2022-09-09T01:32:58;100644.09;;;13.53;100.00
6974;BME280;3527;52.376;8.990;2022-09-09T01:38:47;100640.44;;;13.46;100.00
6974;BME280;3527;52.376;8.990;2022-09-09T01:41:34;100642.78;;;13.37;100.00
6974;BME280;3527;52.376;8.990;2022-09-09T01:44:22;100626.03;;;13.44;100.00
6974;BME280;3527;52.376;8.990;2022-09-09T01:47:10;100625.56;;;13.38;100.00
6974;BME280;3527;52.376;8.990;2022-09-09T01:49:58;100619.53;;;13.33;100.00
6974;BME280;3527;52.376;8.990;2022-09-09T01:52:48;100615.13;;;13.32;100.00
6974;BME280;3527;52.376;8.990;2022-09-09T01:55:39;100624.72;;;13.27;100.00
6974;BME280;3527;52.376;8.990;2022-09-09T01:58:31;100617.53;;;13.29;100.00
6974;BME280;3527;52.376;8.990;2022-09-09T02:07:42;100623.13;;;13.26;100.00
6974;BME280;3527;52.376;8.990;2022-09-09T02:13:36;100627.03;;;13.14;100.00
6974;BME280;3527;52.376;8.990;2022-09-09T02:16:28;100632.63;;;13.11;100.00
6974;BME280;3527;52.376;8.990;2022-09-09T02:19:31;100631.03;;;13.13;100.00
6974;BME280;3527;52.376;8.990;2022-09-09T02:22:22;100645.47;;;13.15;100.00
6974;BME280;3527;52.376;8.990;2022-09-09T02:25:14;100649.56;;;13.28;100.00
6974;BME280;3527;52.376;8.990;2022-09-09T02:28:06;100664.09;;;13.45;100.00
6974;BME280;3527;52.376;8.990;2022-09-09T02:30:56;100659.31;;;13.52;100.00
6974;BME280;3527;52.376;8.990;2022-09-09T02:33:51;100655.75;;;13.66;100.00
6974;BME280;3527;52.376;8.990;2022-09-09T02:36:41;100662.56;;;13.69;100.00
6974;BME280;3527;52.376;8.990;2022-09-09T02:39:30;100666.63;;;13.82;100.00
6974;BME280;3527;52.376;8.990;2022-09-09T02:42:17;100672.31;;;14.00;100.00
6974;BME280;3527;52.376;8.990;2022-09-09T02:45:04;100669.09;;;14.05;100.00
6974;BME280;3527;52.376;8.990;2022-09-09T02:51:07;100672.38;;;14.39;100.00
6974;BME280;3527;52.376;8.990;2022-09-09T02:54:17;100677.63;;;14.51;100.00
6974;BME280;3527;52.376;8.990;2022-09-09T02:57:23;100674.84;;;14.55;100.00
6974;BME280;3527;52.376;8.990;2022-09-09T03:00:12;100672.41;;;14.60;100.00
6974;BME280;3527;52.376;8.990;2022-09-09T03:02:59;100662.78;;;14.65;100.00
6974;BME280;3527;52.376;8.990;2022-09-09T03:05:46;100659.56;;;14.70;100.00
6974;BME280;3527;52.376;8.990;2022-09-09T03:08:33;100652.34;;;14.62;100.00
6974;BME280;3527;52.376;8.990;2022-09-09T03:11:21;100649.13;;;14.60;100.00
6974;BME280;3527;52.376;8.990;2022-09-09T03:14:07;100644.69;;;14.51;100.00
6974;BME280;3527;52.376;8.990;2022-09-09T03:16:55;100640.72;;;14.52;100.00
6974;BME280;3527;52.376;8.990;2022-09-09T03:19:43;100646.34;;;14.52;100.00
6974;BME280;3527;52.376;8.990;2022-09-09T03:22:30;100637.09;;;14.52;100.00
6974;BME280;3527;52.376;8.990;2022-09-09T03:25:17;100642.72;;;14.52;100.00
6974;BME280;3527;52.376;8.990;2022-09-09T03:28:04;100635.09;;;14.52;100.00
6974;BME280;3527;52.376;8.990;2022-09-09T03:30:51;100643.50;;;14.49;100.00
6974;BME280;3527;52.376;8.990;2022-09-09T03:33:39;100645.09;;;14.46;100.00
6974;BME280;3527;52.376;8.990;2022-09-09T03:36:28;100645.91;;;14.43;100.00
6974;BME280;3527;52.376;8.990;2022-09-09T03:39:15;100643.88;;;14.40;100.00
6974;BME280;3527;52.376;8.990;2022-09-09T03:42:02;100645.13;;;14.43;100.00
6974;BME280;3527;52.376;8.990;2022-09-09T03:44:52;100648.28;;;14.41;100.00
6974;BME280;3527;52.376;8.990;2022-09-09T03:47:39;100648.28;;;14.41;100.00
6974;BME280;3527;52.376;8.990;2022-09-09T03:50:26;100652.69;;;14.42;100.00
6974;BME280;3527;52.376;8.990;2022-09-09T03:53:14;100651.91;;;14.42;100.00
6974;BME280;3527;52.376;8.990;2022-09-09T03:56:02;100653.94;;;14.45;100.00
6974;BME280;3527;52.376;8.990;2022-09-09T03:58:51;100653.53;;;14.46;100.00
6974;BME280;3527;52.376;8.990;2022-09-09T04:01:38;100656.78;;;14.52;100.00
6974;BME280;3527;52.376;8.990;2022-09-09T04:04:26;100655.13;;;14.51;100.00
6974;BME280;3527;52.376;8.990;2022-09-09T04:07:14;100645.09;;;14.46;100.00
6974;BME280;3527;52.376;8.990;2022-09-09T04:10:01;100647.50;;;14.48;100.00
6974;BME280;3527;52.376;8.990;2022-09-09T04:12:48;100649.53;;;14.47;100.00
6974;BME280;3527;52.376;8.990;2022-09-09T04:15:35;100659.59;;;14.52;100.00
6974;BME280;3527;52.376;8.990;2022-09-09T04:18:23;100655.94;;;14.51;100.00
6974;BME280;3527;52.376;8.990;2022-09-09T04:21:11;100653.94;;;14.48;100.00
6974;BME280;3527;52.376;8.990;2022-09-09T04:23:58;100664.38;;;14.51;100.00
6974;BME280;3527;52.376;8.990;2022-09-09T04:26:46;100666.78;;;14.49;100.00
6974;BME280;3527;52.376;8.990;2022-09-09T04:29:33;100660.34;;;14.49;100.00
6974;BME280;3527;52.376;8.990;2022-09-09T04:32:20;100664.38;;;14.51;100.00
6974;BME280;3527;52.376;8.990;2022-09-09T04:35:08;100661.16;;;14.49;100.00
6974;BME280;3527;52.376;8.990;2022-09-09T04:37:55;100659.59;;;14.52;100.00
6974;BME280;3527;52.376;8.990;2022-09-09T04:40:51;100662.38;;;14.52;100.00
6974;BME280;3527;52.376;8.990;2022-09-09T04:43:39;100662.00;;;14.53;100.00
6974;BME280;3527;52.376;8.990;2022-09-09T04:46:26;100666.81;;;14.53;100.00
6974;BME280;3527;52.376;8.990;2022-09-09T04:49:13;100666.00;;;14.52;100.00
6974;BME280;3527;52.376;8.990;2022-09-09T04:52:02;100665.16;;;14.48;100.00
6974;BME280;3527;52.376;8.990;2022-09-09T04:54:49;100671.19;;;14.50;100.00
6974;BME280;3527;52.376;8.990;2022-09-09T04:57:36;100663.56;;;14.47;100.00
6974;BME280;3527;52.376;8.990;2022-09-09T05:00:24;100665.97;;;14.45;100.00
6974;BME280;3527;52.376;8.990;2022-09-09T05:03:11;100662.78;;;14.43;100.00
6974;BME280;3527;52.376;8.990;2022-09-09T05:06:10;100671.56;;;14.42;100.00
6974;BME280;3527;52.376;8.990;2022-09-09T05:08:57;100669.97;;;14.41;100.00
6974;BME280;3527;52.376;8.990;2022-09-09T05:11:45;100669.97;;;14.37;100.00
6974;BME280;3527;52.376;8.990;2022-09-09T05:14:32;100674.78;;;14.40;100.00
6974;BME280;3527;52.376;8.990;2022-09-09T05:17:20;100683.22;;;14.40;100.00
6974;BME280;3527;52.376;8.990;2022-09-09T05:20:07;100688.84;;;14.47;100.00
6974;BME280;3527;52.376;8.990;2022-09-09T05:23:01;100686.84;;;14.51;100.00
6974;BME280;3527;52.376;8.990;2022-09-09T05:25:57;100687.69;;;14.56;100.00
6974;BME280;3527;52.376;8.990;2022-09-09T05:28:45;100680.44;;;14.62;100.00
6974;BME280;3527;52.376;8.990;2022-09-09T05:31:32;100676.84;;;14.65;100.00
6974;BME280;3527;52.376;8.990;2022-09-09T05:34:20;100679.63;;;14.72;100.00
6974;BME280;3527;52.376;8.990;2022-09-09T05:37:07;100674.81;;;14.83;100.00
6974;BME280;3527;52.376;8.990;2022-09-09T05:39:54;100670.00;;;14.94;100.00
6974;BME280;3527;52.376;8.990;2022-09-09T05:42:41;100670.38;;;15.03;100.00
6974;BME280;3527;52.376;8.990;2022-09-09T05:45:28;100668.34;;;15.04;100.00
6974;BME280;3527;52.376;8.990;2022-09-09T05:48:15;100664.34;;;15.05;100.00
6974;BME280;3527;52.376;8.990;2022-09-09T05:51:04;100667.16;;;15.05;100.00
6974;BME280;3527;52.376;8.990;2022-09-09T05:53:51;100663.53;;;15.11;100.00
6974;BME280;3527;52.376;8.990;2022-09-09T05:56:38;100658.31;;;15.13;100.00
6974;BME280;3527;52.376;8.990;2022-09-09T05:59:25;100651.09;;;15.12;100.00
6974;BME280;3527;52.376;8.990;2022-09-09T06:02:12;100651.47;;;15.14;100.00
6974;BME280;3527;52.376;8.990;2022-09-09T06:05:00;100654.69;;;15.17;100.00
6974;BME280;3527;52.376;8.990;2022-09-09T06:07:47;100645.00;;;15.25;100.00
6974;BME280;3527;52.376;8.990;2022-09-09T06:10:34;100643.38;;;15.31;100.00
6974;BME280;3527;52.376;8.990;2022-09-09T06:13:22;100645.78;;;15.32;100.00
6974;BME280;3527;52.376;8.990;2022-09-09T06:16:12;100644.59;;;15.37;100.00
6974;BME280;3527;52.376;8.990;2022-09-09T06:19:01;100648.19;;;15.34;100.00
6974;BME280;3527;52.376;8.990;2022-09-09T06:21:50;100633.72;;;15.42;100.00
6974;BME280;3527;52.376;8.990;2022-09-09T06:24:37;100628.88;;;15.43;100.00
6974;BME280;3527;52.376;8.990;2022-09-09T06:27:24;100632.06;;;15.49;100.00
6974;BME280;3527;52.376;8.990;2022-09-09T06:30:11;100636.88;;;15.59;100.00
6974;BME280;3527;52.376;8.990;2022-09-09T06:32:58;100631.28;;;15.48;100.00
6974;BME280;3527;52.376;8.990;2022-09-09T06:35:51;100628.81;;;15.64;100.00
6974;BME280;3527;52.376;8.990;2022-09-09T06:38:39;100628.00;;;15.71;100.00
6974;BME280;3527;52.376;8.990;2022-09-09T06:41:30;100625.59;;;15.69;100.00
6974;BME280;3527;52.376;8.990;2022-09-09T06:44:17;100630.38;;;15.72;100.00
6974;BME280;3527;52.376;8.990;2022-09-09T06:47:04;100633.63;;;15.67;100.00
6974;BME280;3527;52.376;8.990;2022-09-09T06:49:52;100624.03;;;15.61;100.00
6974;BME280;3527;52.376;8.990;2022-09-09T06:52:39;100628.81;;;15.68;100.00
6974;BME280;3527;52.376;8.990;2022-09-09T06:55:26;100622.38;;;15.67;100.00
6974;BME280;3527;52.376;8.990;2022-09-09T06:58:13;100622.34;;;15.74;100.00
6974;BME280;3527;52.376;8.990;2022-09-09T07:01:06;100626.31;;;15.81;100.00
6974;BME280;3527;52.376;8.990;2022-09-09T07:03:55;100623.03;;;15.93;100.00
6974;BME280;3527;52.376;8.990;2022-09-09T07:06:44;100622.91;;;16.11;100.00
6974;BME280;3527;52.376;8.990;2022-09-09T07:09:32;100628.44;;;16.28;100.00
6974;BME280;3527;52.376;8.990;2022-09-09T07:12:19;100636.16;;;16.69;100.00
6974;BME280;3527;52.376;8.990;2022-09-09T07:15:07;100635.84;;;17.05;100.00
6974;BME280;3527;52.376;8.990;2022-09-09T07:17:54;100620.34;;;17.20;100.00
6974;BME280;3527;52.376;8.990;2022-09-09T07:20:41;100627.25;;;17.49;100.00
6974;BME280;3527;52.376;8.990;2022-09-09T07:23:28;100614.06;;;17.73;100.00
6974;BME280;3527;52.376;8.990;2022-09-09T07:26:24;100600.25;;;17.79;100.00
6974;BME280;3527;52.376;8.990;2022-09-09T07:29:11;100601.94;;;18.03;100.00
6974;BME280;3527;52.376;8.990;2022-09-09T07:32:06;100591.81;;;18.06;100.00
6974;BME280;3527;52.376;8.990;2022-09-09T07:34:53;100592.47;;;17.90;100.00
6974;BME280;3527;52.376;8.990;2022-09-09T07:37:40;100596.94;;;18.14;100.00
6974;BME280;3527;52.376;8.990;2022-09-09T07:40:28;100591.91;;;17.99;100.00
6974;BME280;3527;52.376;8.990;2022-09-09T07:43:15;100606.69;;;18.10;100.00
6974;BME280;3527;52.376;8.990;2022-09-09T07:46:06;100601.47;;;18.08;100.00
6974;BME280;3527;52.376;8.990;2022-09-09T07:48:55;100602.53;;;18.18;100.00
6974;BME280;3527;52.376;8.990;2022-09-09T07:51:45;100613.13;;;18.37;100.00
6974;BME280;3527;52.376;8.990;2022-09-09T07:54:33;100623.75;;;18.53;100.00
6974;BME280;3527;52.376;8.990;2022-09-09T07:57:20;100622.13;;;18.29;100.00
6974;BME280;3527;52.376;8.990;2022-09-09T08:00:08;100627.75;;;18.56;100.00
6974;BME280;3527;52.376;8.990;2022-09-09T08:02:57;100622.53;;;18.54;100.00
6974;BME280;3527;52.376;8.990;2022-09-09T08:05:44;100638.06;;;18.93;100.00
6974;BME280;3527;52.376;8.990;2022-09-09T08:08:31;100636.06;;;18.90;100.00
6974;BME280;3527;52.376;8.990;2022-09-09T08:11:18;100642.06;;;18.95;100.00
6974;BME280;3527;52.376;8.990;2022-09-09T08:14:07;100630.19;;;18.80;100.00
6974;BME280;3527;52.376;8.990;2022-09-09T08:16:54;100642.63;;;18.63;100.00
6974;BME280;3527;52.376;8.990;2022-09-09T08:19:42;100636.72;;;18.77;100.00
6974;BME280;3527;52.376;8.990;2022-09-09T08:22:31;100645.38;;;18.90;100.00
6974;BME280;3527;52.376;8.990;2022-09-09T08:25:18;100649.84;;;19.11;100.00
6974;BME280;3527;52.376;8.990;2022-09-09T08:28:05;100637.22;;;19.35;100.00
6974;BME280;3527;52.376;8.990;2022-09-09T08:30:52;100645.22;;;19.40;100.00
6974;BME280;3527;52.376;8.990;2022-09-09T08:33:41;100634.91;;;19.30;100.00
6974;BME280;3527;52.376;8.990;2022-09-09T08:36:30;100637.91;;;19.23;100.00
6974;BME280;3527;52.376;8.990;2022-09-09T08:39:19;100644.28;;;19.27;99.65
6974;BME280;3527;52.376;8.990;2022-09-09T08:45:22;100660.50;;;19.47;100.00
6974;BME280;3527;52.376;8.990;2022-09-09T08:48:29;100656.50;;;19.84;98.28
6974;BME280;3527;52.376;8.990;2022-09-09T08:51:19;100634.94;;;19.70;95.91
6974;BME280;3527;52.376;8.990;2022-09-09T08:54:08;100655.78;;;19.80;95.84
6974;BME280;3527;52.376;8.990;2022-09-09T08:56:56;100663.59;;;19.92;94.18
6974;BME280;3527;52.376;8.990;2022-09-09T08:59:43;100658.34;;;19.74;92.57
6974;BME280;3527;52.376;8.990;2022-09-09T09:02:41;100664.00;;;19.74;92.67
6974;BME280;3527;52.376;8.990;2022-09-09T09:08:42;100686.72;;;20.62;93.25
6974;BME280;3527;52.376;8.990;2022-09-09T09:11:54;100678.63;;;20.77;89.99
6974;BME280;3527;52.376;8.990;2022-09-09T09:14:45;100678.91;;;20.66;89.41
6974;BME280;3527;52.376;8.990;2022-09-09T09:17:33;100682.63;;;20.47;88.95
6974;BME280;3527;52.376;8.990;2022-09-09T09:21:15;100684.41;;;20.57;89.22
6974;BME280;3527;52.376;8.990;2022-09-09T09:23:48;100683.16;;;20.22;87.67
6974;BME280;3527;52.376;8.990;2022-09-09T09:26:46;100689.63;;;20.23;88.33
6974;BME280;3527;52.376;8.990;2022-09-09T09:29:33;100680.84;;;20.17;86.46
6974;BME280;3527;52.376;8.990;2022-09-09T09:32:49;100674.38;;;20.17;85.54
6974;BME280;3527;52.376;8.990;2022-09-09T09:35:38;100680.22;;;20.78;84.86
6974;BME280;3527;52.376;8.990;2022-09-09T09:38:29;100668.53;;;20.60;84.27
6974;BME280;3527;52.376;8.990;2022-09-09T09:41:39;100663.31;;;20.58;83.44
6974;BME280;3527;52.376;8.990;2022-09-09T09:44:31;100658.41;;;20.75;82.72
6974;BME280;3527;52.376;8.990;2022-09-09T09:47:20;100667.63;;;20.79;82.28
6974;BME280;3527;52.376;8.990;2022-09-09T09:50:19;100659.69;;;21.19;81.68
6974;BME280;3527;52.376;8.990;2022-09-09T09:53:21;100663.63;;;21.25;81.70
6974;BME280;3527;52.376;8.990;2022-09-09T09:56:14;100662.47;;;21.52;80.70
6974;BME280;3527;52.376;8.990;2022-09-09T09:59:01;100657.22;;;21.05;79.84
6974;BME280;3527;52.376;8.990;2022-09-09T10:02:23;100652.66;;;20.79;81.59
6974;BME280;3527;52.376;8.990;2022-09-09T10:05:16;100656.38;;;20.43;82.78
6974;BME280;3527;52.376;8.990;2022-09-09T10:08:13;100649.22;;;20.19;82.56
6974;BME280;3527;52.376;8.990;2022-09-09T10:14:53;100662.25;;;19.60;84.91
6974;BME280;3527;52.376;8.990;2022-09-09T10:21:06;100653.84;;;19.57;86.62
6974;BME280;3527;52.376;8.990;2022-09-09T10:33:15;100648.19;;;19.93;92.79
6974;BME280;3527;52.376;8.990;2022-09-09T10:36:23;100643.38;;;20.26;91.80
6974;BME280;3527;52.376;8.990;2022-09-09T10:42:31;100660.84;;;19.88;89.91
6974;BME280;3527;52.376;8.990;2022-09-09T10:45:21;100624.16;;;19.41;85.41
6974;BME280;3527;52.376;8.990;2022-09-09T11:00:17;100639.06;;;19.85;81.54
6974;BME280;3527;52.376;8.990;2022-09-09T11:03:06;100632.47;;;19.52;79.52
6974;BME280;3527;52.376;8.990;2022-09-09T11:06:14;100638.19;;;19.29;82.19
6974;BME280;3527;52.376;8.990;2022-09-09T11:09:03;100667.69;;;19.71;85.15
6974;BME280;3527;52.376;8.990;2022-09-09T11:11:56;100668.91;;;19.70;87.06
6974;BME280;3527;52.376;8.990;2022-09-09T11:14:47;100654.09;;;19.82;86.08
6974;BME280;3527;52.376;8.990;2022-09-09T11:17:49;100656.81;;;20.42;84.99
6974;BME280;3527;52.376;8.990;2022-09-09T11:20:37;100647.56;;;20.37;83.66
6974;BME280;3527;52.376;8.990;2022-09-09T11:23:54;100643.66;;;20.15;84.11
6974;BME280;3527;52.376;8.990;2022-09-09T11:26:51;100650.28;;;20.09;85.01
6974;BME280;3527;52.376;8.990;2022-09-09T11:30:19;100663.28;;;20.42;86.31
6974;BME280;3527;52.376;8.990;2022-09-09T11:33:58;100647.53;;;20.41;84.03
6974;BME280;3527;52.376;8.990;2022-09-09T11:40:17;100621.09;;;20.77;77.45
6974;BME280;3527;52.376;8.990;2022-09-09T11:43:15;100633.13;;;21.42;75.89
6974;BME280;3527;52.376;8.990;2022-09-09T11:46:03;100632.88;;;21.91;73.58
6974;BME280;3527;52.376;8.990;2022-09-09T11:49:05;100623.06;;;22.46;71.11
6974;BME280;3527;52.376;8.990;2022-09-09T11:51:52;100609.91;;;22.74;68.86
6974;BME280;3527;52.376;8.990;2022-09-09T11:54:47;100590.94;;;22.46;67.72
6974;BME280;3527;52.376;8.990;2022-09-09T11:57:36;100599.19;;;22.78;66.05
6974;BME280;3527;52.376;8.990;2022-09-09T12:03:48;100615.19;;;22.98;66.71
6974;BME280;3527;52.376;8.990;2022-09-09T12:06:44;100599.19;;;23.13;64.53
6974;BME280;3527;52.376;8.990;2022-09-09T12:12:49;100610.84;;;22.59;64.90
6974;BME280;3527;52.376;8.990;2022-09-09T12:15:49;100614.16;;;22.44;65.31
6974;BME280;3527;52.376;8.990;2022-09-09T12:18:39;100620.50;;;22.61;65.72
6974;BME280;3527;52.376;8.990;2022-09-09T12:21:35;100610.41;;;22.47;65.13
6974;BME280;3527;52.376;8.990;2022-09-09T12:25:33;100617.31;;;22.59;64.87
6974;BME280;3527;52.376;8.990;2022-09-09T12:31:10;100609.66;;;23.16;63.75
6974;BME280;3527;52.376;8.990;2022-09-09T12:40:19;100596.66;;;23.81;59.15
6974;BME280;3527;52.376;8.990;2022-09-09T12:43:18;100611.06;;;24.08;59.67
6974;BME280;3527;52.376;8.990;2022-09-09T12:49:38;100581.19;;;23.38;58.05
6974;BME280;3527;52.376;8.990;2022-09-09T12:52:31;100602.94;;;23.66;59.41
6974;BME280;3527;52.376;8.990;2022-09-09T12:55:35;100591.84;;;23.99;57.87
6974;BME280;3527;52.376;8.990;2022-09-09T12:58:24;100566.53;;;23.27;57.95
6974;BME280;3527;52.376;8.990;2022-09-09T13:01:23;100573.09;;;23.15;58.73
6974;BME280;3527;52.376;8.990;2022-09-09T13:04:21;100574.19;;;22.95;58.95
6974;BME280;3527;52.376;8.990;2022-09-09T13:07:27;100561.13;;;22.50;59.77
6974;BME280;3527;52.376;8.990;2022-09-09T13:19:45;100560.97;;;23.23;59.28
6974;BME280;3527;52.376;8.990;2022-09-09T13:22:35;100532.41;;;22.92;58.26
6974;BME280;3527;52.376;8.990;2022-09-09T13:25:27;100576.44;;;23.35;59.79
6974;BME280;3527;52.376;8.990;2022-09-09T13:28:20;100547.25;;;22.87;58.76
6974;BME280;3527;52.376;8.990;2022-09-09T13:31:21;100568.03;;;22.97;59.83
6974;BME280;3527;52.376;8.990;2022-09-09T13:34:25;100570.53;;;23.29;59.74
6974;BME280;3527;52.376;8.990;2022-09-09T13:37:37;100560.03;;;23.70;57.61
6974;BME280;3527;52.376;8.990;2022-09-09T13:40:24;100531.09;;;23.28;57.03
6974;BME280;3527;52.376;8.990;2022-09-09T13:43:22;100563.22;;;23.50;58.68
6974;BME280;3527;52.376;8.990;2022-09-09T13:49:39;100541.09;;;22.89;57.58
6974;BME280;3527;52.376;8.990;2022-09-09T13:52:31;100532.41;;;22.58;58.21
6974;BME280;3527;52.376;8.990;2022-09-09T13:55:21;100528.41;;;22.20;59.70
6974;BME280;3527;52.376;8.990;2022-09-09T13:58:15;100505.19;;;21.58;59.84
6974;BME280;3527;52.376;8.990;2022-09-09T14:01:06;100507.78;;;21.27;61.18
6974;BME280;3527;52.376;8.990;2022-09-09T14:03:54;100507.53;;;21.35;61.82
6974;BME280;3527;52.376;8.990;2022-09-09T14:06:41;100504.38;;;21.33;61.83
6974;BME280;3527;52.376;8.990;2022-09-09T14:09:33;100499.25;;;21.27;62.26
6974;BME280;3527;52.376;8.990;2022-09-09T14:12:20;100485.56;;;21.10;62.26
6974;BME280;3527;52.376;8.990;2022-09-09T14:15:10;100486.16;;;21.17;62.22
6974;BME280;3527;52.376;8.990;2022-09-09T14:17:57;100485.59;;;21.22;62.62
6974;BME280;3527;52.376;8.990;2022-09-09T14:20:45;100494.59;;;21.34;62.75
6974;BME280;3527;52.376;8.990;2022-09-09T14:23:35;100482.47;;;21.46;61.66
6974;BME280;3527;52.376;8.990;2022-09-09T14:26:23;100487.91;;;21.53;61.78
6974;BME280;3527;52.376;8.990;2022-09-09T14:29:10;100501.69;;;21.67;62.49
6974;BME280;3527;52.376;8.990;2022-09-09T14:31:58;100486.34;;;21.65;61.98
6974;BME280;3527;52.376;8.990;2022-09-09T14:34:58;100519.25;;;21.24;63.87
6974;BME280;3527;52.376;8.990;2022-09-09T14:37:45;100526.19;;;20.78;68.55
6974;BME280;3527;52.376;8.990;2022-09-09T14:40:36;100541.81;;;20.86;71.36
6974;BME280;3527;52.376;8.990;2022-09-09T14:43:24;100546.72;;;20.98;74.71
6974;BME280;3527;52.376;8.990;2022-09-09T14:46:18;100541.84;;;20.98;74.82
6974;BME280;3527;52.376;8.990;2022-09-09T14:49:05;100534.28;;;21.50;75.29
6974;BME280;3527;52.376;8.990;2022-09-09T14:51:52;100517.22;;;21.37;72.83
6974;BME280;3527;52.376;8.990;2022-09-09T14:54:39;100543.59;;;21.63;75.77
6974;BME280;3527;52.376;8.990;2022-09-09T14:57:26;100531.38;;;21.92;75.06
6974;BME280;3527;52.376;8.990;2022-09-09T15:00:13;100551.72;;;22.28;75.60
6974;BME280;3527;52.376;8.990;2022-09-09T15:03:01;100540.78;;;22.74;73.25
6974;BME280;3527;52.376;8.990;2022-09-09T15:05:50;100522.75;;;22.42;72.08
6974;BME280;3527;52.376;8.990;2022-09-09T15:08:39;100536.34;;;22.00;74.14
6974;BME280;3527;52.376;8.990;2022-09-09T15:11:30;100537.41;;;22.19;74.45
6974;BME280;3527;52.376;8.990;2022-09-09T15:14:18;100532.72;;;22.12;73.69
6974;BME280;3527;52.376;8.990;2022-09-09T15:17:11;100543.41;;;22.34;76.46
6974;BME280;3527;52.376;8.990;2022-09-09T15:19:59;100540.16;;;22.57;76.60
6974;BME280;3527;52.376;8.990;2022-09-09T15:22:46;100525.72;;;22.51;73.44
6974;BME280;3527;52.376;8.990;2022-09-09T15:25:33;100509.25;;;22.34;71.39
6974;BME280;3527;52.376;8.990;2022-09-09T15:28:20;100527.72;;;22.16;74.40
6974;BME280;3527;52.376;8.990;2022-09-09T15:31:13;100505.66;;;22.08;71.33
6974;BME280;3527;52.376;8.990;2022-09-09T15:34:03;100513.75;;;21.97;72.24
6974;BME280;3527;52.376;8.990;2022-09-09T15:36:51;100514.88;;;21.74;71.46
6974;BME280;3527;52.376;8.990;2022-09-09T15:39:39;100516.66;;;21.55;71.92
6974;BME280;3527;52.376;8.990;2022-09-09T15:42:27;100519.44;;;21.17;74.01
6974;BME280;3527;52.376;8.990;2022-09-09T15:45:14;100504.00;;;20.89;73.86
6974;BME280;3527;52.376;8.990;2022-09-09T15:48:02;100491.88;;;20.59;72.80
6974;BME280;3527;52.376;8.990;2022-09-09T15:51:01;100504.13;;;20.40;73.60
6974;BME280;3527;52.376;8.990;2022-09-09T15:54:05;100505.69;;;20.25;74.00
6974;BME280;3527;52.376;8.990;2022-09-09T15:56:58;100498.72;;;20.13;73.35
6974;BME280;3527;52.376;8.990;2022-09-09T15:59:45;100502.34;;;19.97;74.74
6974;BME280;3527;52.376;8.990;2022-09-09T16:02:32;100514.75;;;19.87;76.07
6974;BME280;3527;52.376;8.990;2022-09-09T16:05:19;100524.00;;;19.71;77.91
6974;BME280;3527;52.376;8.990;2022-09-09T16:08:07;100517.44;;;19.58;77.69
6974;BME280;3527;52.376;8.990;2022-09-09T16:10:54;100501.59;;;19.61;76.68
6974;BME280;3527;52.376;8.990;2022-09-09T16:13:42;100503.72;;;19.57;77.66
6974;BME280;3527;52.376;8.990;2022-09-09T16:16:36;100500.91;;;19.57;77.65
6974;BME280;3527;52.376;8.990;2022-09-09T16:19:23;100500.00;;;19.60;77.49
6974;BME280;3527;52.376;8.990;2022-09-09T16:22:11;100493.38;;;19.66;76.94
6974;BME280;3527;52.376;8.990;2022-09-09T16:24:58;100495.69;;;19.71;77.39
6974;BME280;3527;52.376;8.990;2022-09-09T16:27:45;100490.00;;;19.71;77.02
6974;BME280;3527;52.376;8.990;2022-09-09T16:30:32;100488.38;;;19.74;77.00
6974;BME280;3527;52.376;8.990;2022-09-09T16:33:19;100497.38;;;19.85;77.54
6974;BME280;3527;52.376;8.990;2022-09-09T16:36:08;100484.81;;;19.86;76.05
6974;BME280;3527;52.376;8.990;2022-09-09T16:38:58;100495.53;;;19.79;76.35
6974;BME280;3527;52.376;8.990;2022-09-09T16:41:46;100507.75;;;19.92;76.67
6974;BME280;3527;52.376;8.990;2022-09-09T16:44:34;100514.47;;;19.98;76.71
6974;BME280;3527;52.376;8.990;2022-09-09T16:47:21;100520.94;;;19.98;77.01
6974;BME280;3527;52.376;8.990;2022-09-09T16:50:08;100520.78;;;20.05;78.21
6974;BME280;3527;52.376;8.990;2022-09-09T16:52:56;100535.66;;;20.10;80.02
6974;BME280;3527;52.376;8.990;2022-09-09T16:55:43;100533.88;;;19.99;81.20
6974;BME280;3527;52.376;8.990;2022-09-09T16:58:30;100535.63;;;19.93;81.71
6974;BME280;3527;52.376;8.990;2022-09-09T17:01:17;100539.88;;;19.85;82.62
6974;BME280;3527;52.376;8.990;2022-09-09T17:04:11;100535.34;;;19.71;82.67